Time;durP1;ratioP1;P1;durP2;ratioP2;P2;SDS_P1;SDS_P2;PMS_P1;PMS_P2;Temp;Humidity;BMP_temperature;BMP_pressure;BME280_temperature;BME280_humidity;BME280_pressure;Samples;Min_cycle;Max_cycle;Signal;HPM_P1;HPM_P2
2021/11/07 00:06:37;;;;;;;54.45;19.65;;;;;;;11.37;100.00;95948.59;5043102;28;20502;-68
2021/11/07 00:09:14;;;;;;;39.20;16.33;;;;;;;11.10;100.00;95927.06;5041205;28;20053;-68
2021/11/07 00:11:42;;;;;;;39.45;17.60;;;;;;;11.09;100.00;95933.28;5043387;28;20049;-68
2021/11/07 00:14:11;;;;;;;41.70;18.42;;;;;;;11.06;100.00;95923.28;5044561;28;20041;-68
2021/11/07 00:16:40;;;;;;;37.35;16.08;;;;;;;10.90;100.00;95901.06;5042945;28;20052;-68
2021/11/07 00:19:16;;;;;;;48.92;18.38;;;;;;;11.02;100.00;95914.25;5044047;28;20053;-68
2021/11/07 00:38:20;;;;;;;34.33;16.13;;;;;;;11.34;100.00;95919.53;5044601;28;20131;-69
2021/11/07 00:43:41;;;;;;;39.63;16.95;;;;;;;11.28;100.00;95906.31;5044041;28;20502;-69
2021/11/07 00:46:21;;;;;;;29.83;14.63;;;;;;;11.21;100.00;95904.75;5042101;28;20906;-70
2021/11/07 00:56:42;;;;;;;30.55;16.20;;;;;;;11.49;100.00;95907.03;5044174;28;20041;-69
2021/11/07 01:01:42;;;;;;;37.75;18.75;;;;;;;11.63;100.00;95916.38;5043398;28;20052;-69
2021/11/07 01:04:12;;;;;;;38.10;18.52;;;;;;;11.69;100.00;95911.31;5042127;28;20430;-69
2021/11/07 01:06:41;;;;;;;39.08;20.50;;;;;;;11.77;100.00;95900.59;5041111;28;20391;-69
2021/11/07 01:09:09;;;;;;;44.53;22.33;;;;;;;11.79;100.00;95901.19;5039553;28;20052;-69
2021/11/07 01:11:37;;;;;;;47.45;21.55;;;;;;;11.64;100.00;95876.19;5043379;28;20042;-69
2021/11/07 01:14:07;;;;;;;43.30;20.95;;;;;;;11.75;100.00;95900.03;5043401;28;20057;-69
2021/11/07 01:16:34;;;;;;;39.33;19.00;;;;;;;11.62;100.00;95874.81;5042526;28;20041;-69
2021/11/07 01:19:01;;;;;;;47.08;22.65;;;;;;;11.77;100.00;95867.47;5043589;28;20057;-69
2021/11/07 01:21:32;;;;;;;47.30;23.25;;;;;;;11.94;100.00;95878.22;5024652;28;20064;-70
2021/11/07 01:24:02;;;;;;;45.70;21.13;;;;;;;11.97;100.00;95869.94;5042930;28;20049;-69
2021/11/07 01:26:52;;;;;;;43.08;20.27;;;;;;;12.07;100.00;95876.53;5042822;28;20072;-69
2021/11/07 01:29:22;;;;;;;48.45;19.35;;;;;;;12.11;100.00;95877.69;5042567;28;20049;-69
2021/11/07 01:31:50;;;;;;;39.95;20.65;;;;;;;12.14;100.00;95869.44;5040889;28;20044;-69
2021/11/07 01:34:37;;;;;;;38.13;20.17;;;;;;;12.13;100.00;95865.22;5043562;28;20498;-69
2021/11/07 01:37:14;;;;;;;31.67;17.27;;;;;;;12.10;100.00;95868.25;5040845;28;20835;-69
2021/11/07 01:40:29;;;;;;;46.38;19.50;;;;;;;12.05;100.00;95854.03;5040509;28;20498;-69
2021/11/07 01:42:35;;;;;;;40.97;20.38;;;;;;;12.11;100.00;95856.78;5029189;28;20518;-69
2021/11/07 01:45:08;;;;;;;;;;;;;;;12.11;100.00;95856.78;5042207;28;20095;-69
2021/11/07 01:47:42;;;;;;;38.00;18.67;;;;;;;12.11;100.00;95862.03;5040139;28;19925;-69
2021/11/07 01:50:09;;;;;;;35.53;18.98;;;;;;;12.10;100.00;95866.44;5043452;28;20103;-69
2021/11/07 01:52:40;;;;;;;42.50;19.48;;;;;;;12.14;100.00;95867.59;5041082;28;20044;-69
2021/11/07 01:55:07;;;;;;;46.45;20.63;;;;;;;12.16;100.00;95877.84;5041574;28;20056;-69
2021/11/07 01:57:36;;;;;;;45.17;20.67;;;;;;;12.14;100.00;95870.22;5024735;28;20536;-69
2021/11/07 02:00:17;;;;;;;42.00;18.65;;;;;;;12.21;100.00;95867.56;5042447;28;20045;-69
2021/11/07 02:02:44;;;;;;;38.30;18.30;;;;;;;12.14;100.00;95869.44;5040305;28;20041;-70
2021/11/07 02:05:11;;;;;;;34.08;17.90;;;;;;;12.09;100.00;95864.03;5042636;28;20510;-69
2021/11/07 02:07:38;;;;;;;39.92;19.33;;;;;;;12.13;100.00;95859.97;5040680;28;20037;-69
2021/11/07 02:10:09;;;;;;;43.70;18.92;;;;;;;12.04;100.00;95867.28;5042328;28;20048;-70
2021/11/07 02:12:36;;;;;;;39.03;19.08;;;;;;;12.02;100.00;95869.31;5041143;28;20037;-69
2021/11/07 02:15:06;;;;;;;40.22;18.65;;;;;;;11.96;100.00;95860.53;5042342;28;20037;-69
2021/11/07 02:17:33;;;;;;;38.85;19.55;;;;;;;11.97;100.00;95864.72;5042702;28;20029;-70
2021/11/07 02:20:03;;;;;;;43.95;21.00;;;;;;;11.98;100.00;95873.38;5041795;28;20049;-69
2021/11/07 02:22:31;;;;;;;37.08;19.52;;;;;;;11.94;100.00;95867.78;5042286;28;20052;-70
2021/11/07 02:24:57;;;;;;;36.33;19.00;;;;;;;11.88;100.00;95858.16;5040705;28;21576;-70
2021/11/07 02:27:24;;;;;;;42.67;20.15;;;;;;;11.98;100.00;95863.72;5039382;28;20045;-70
2021/11/07 02:29:54;;;;;;;43.67;18.95;;;;;;;11.89;100.00;95849.31;5040249;28;20037;-70
2021/11/07 02:32:21;;;;;;;50.75;19.77;;;;;;;11.90;100.00;95850.94;5041616;28;20114;-70
2021/11/07 02:34:49;;;;;;;43.28;18.30;;;;;;;11.92;100.00;95854.16;5041861;28;20049;-70
2021/11/07 02:37:15;;;;;;;47.70;20.13;;;;;;;11.91;100.00;95860.38;5041345;28;20068;-70
2021/11/07 02:39:42;;;;;;;52.30;23.27;;;;;;;11.86;100.00;95845.31;5041220;28;20043;-70
2021/11/07 02:42:09;;;;;;;53.97;20.42;;;;;;;11.88;100.00;95857.34;5024481;28;20098;-70
2021/11/07 02:44:38;;;;;;;42.10;19.48;;;;;;;11.85;100.00;95853.38;5042202;28;20506;-70
2021/11/07 02:47:08;;;;;;;44.05;19.35;;;;;;;11.85;100.00;95856.78;5040325;28;20040;-70
2021/11/07 02:49:36;;;;;;;44.40;20.58;;;;;;;11.83;100.00;95855.41;5041731;28;20102;-70
2021/11/07 02:52:05;;;;;;;49.60;20.27;;;;;;;11.81;100.00;95852.19;5040717;28;20044;-70
2021/11/07 02:54:33;;;;;;;44.80;18.80;;;;;;;11.80;100.00;95846.16;5043645;28;20060;-70
2021/11/07 02:57:04;;;;;;;45.67;19.50;;;;;;;11.74;100.00;95836.59;5040389;28;20045;-70
2021/11/07 02:59:33;;;;;;;44.33;19.98;;;;;;;11.80;100.00;95834.94;5041893;28;20044;-70
2021/11/07 03:02:02;;;;;;;41.88;18.90;;;;;;;11.79;100.00;95846.38;5040270;28;20040;-69
2021/11/07 03:04:30;;;;;;;37.20;19.55;;;;;;;11.70;100.00;95847.66;5040606;28;20493;-70
2021/11/07 03:06:58;;;;;;;39.50;19.67;;;;;;;11.71;100.00;95851.88;5041668;28;20525;-70
2021/11/07 03:09:27;;;;;;;43.97;19.25;;;;;;;11.72;100.00;95850.84;5039170;28;20045;-69
2021/11/07 03:11:59;;;;;;;44.47;19.63;;;;;;;11.74;100.00;95846.22;5040864;28;20502;-70
2021/11/07 03:14:30;;;;;;;44.30;19.38;;;;;;;11.77;100.00;95846.59;5041213;28;20549;-70
2021/11/07 03:16:59;;;;;;;42.45;19.95;;;;;;;11.81;100.00;95846.97;5041139;28;20041;-69
2021/11/07 03:19:27;;;;;;;44.67;18.95;;;;;;;11.82;100.00;95843.34;5041956;28;20049;-69
2021/11/07 03:21:57;;;;;;;43.75;18.35;;;;;;;11.85;100.00;95848.16;5040901;28;20044;-69
2021/11/07 03:24:24;;;;;;;43.85;18.65;;;;;;;11.87;100.00;95848.75;5042376;28;20429;-69
2021/11/07 03:26:52;;;;;;;43.40;18.10;;;;;;;11.90;100.00;95853.53;5040432;28;20099;-69
2021/11/07 03:29:20;;;;;;;40.53;18.00;;;;;;;11.81;100.00;95831.31;5042701;28;20053;-69
2021/11/07 03:31:56;;;;;;;38.15;16.50;;;;;;;11.91;100.00;95857.75;5041429;28;20040;-69
2021/11/07 03:34:27;;;;;;;40.00;19.92;;;;;;;11.91;100.00;95857.75;5045036;28;20529;-69
2021/11/07 03:36:58;;;;;;;41.50;19.17;;;;;;;11.96;100.00;95855.31;5042437;28;20049;-69
2021/11/07 03:39:27;;;;;;;36.78;18.58;;;;;;;11.97;100.00;95861.31;5044773;28;20503;-70
2021/11/07 03:41:58;;;;;;;39.00;17.75;;;;;;;11.91;100.00;95857.75;5041948;28;20041;-70
2021/11/07 03:44:25;;;;;;;43.03;18.88;;;;;;;11.90;100.00;95850.94;5044898;28;20048;-70
2021/11/07 03:46:55;;;;;;;42.42;18.77;;;;;;;11.90;100.00;95855.31;5042823;28;20029;-70
2021/11/07 03:49:22;;;;;;;41.15;18.48;;;;;;;11.86;100.00;95854.97;5043520;28;20099;-70
2021/11/07 03:51:50;;;;;;;40.58;17.48;;;;;;;11.86;100.00;95862.78;5044684;28;20048;-70
2021/11/07 03:54:18;;;;;;;43.92;18.50;;;;;;;11.86;100.00;95857.56;5042783;28;20102;-70
2021/11/07 03:56:45;;;;;;;39.22;18.27;;;;;;;11.88;100.00;95854.75;5043732;28;20418;-70
2021/11/07 03:59:12;;;;;;;44.92;19.17;;;;;;;11.90;100.00;95861.38;5041920;28;20040;-69
2021/11/07 04:01:38;;;;;;;44.10;18.90;;;;;;;11.94;100.00;95859.94;5043104;28;20099;-69
2021/11/07 04:04:07;;;;;;;36.97;17.42;;;;;;;11.91;100.00;95857.75;5044144;28;20506;-70
2021/11/07 04:06:34;;;;;;;40.80;17.70;;;;;;;11.91;100.00;95852.53;5044493;28;20045;-69
2021/11/07 04:09:02;;;;;;;46.50;19.10;;;;;;;11.93;100.00;95850.50;5042914;28;20045;-69
2021/11/07 04:11:28;;;;;;;53.08;19.83;;;;;;;11.98;100.00;95862.94;5044317;28;20045;-69
2021/11/07 04:13:55;;;;;;;42.08;17.58;;;;;;;11.95;100.00;95852.91;5042938;28;20044;-69
2021/11/07 04:16:22;;;;;;;47.72;20.10;;;;;;;11.98;100.00;95855.09;5044498;28;20075;-70
2021/11/07 04:18:49;;;;;;;46.22;18.88;;;;;;;11.95;100.00;95852.91;5043541;28;20041;-69
2021/11/07 04:21:16;;;;;;;48.50;19.67;;;;;;;11.94;100.00;95846.91;5043838;28;20111;-70
2021/11/07 04:23:42;;;;;;;51.67;18.20;;;;;;;11.99;100.00;95854.91;5044032;28;20601;-70
2021/11/07 04:26:09;;;;;;;44.65;18.67;;;;;;;11.98;100.00;95850.66;5044770;28;20473;-70
2021/11/07 04:28:36;;;;;;;48.25;17.88;;;;;;;11.91;100.00;95836.88;5042598;28;20111;-70
2021/11/07 04:31:03;;;;;;;47.38;19.20;;;;;;;11.96;100.00;95850.09;5044737;28;20053;-69
2021/11/07 04:33:30;;;;;;;46.60;19.10;;;;;;;11.98;100.00;95853.28;5041326;28;20461;-69
2021/11/07 04:35:59;;;;;;;46.38;18.05;;;;;;;12.03;100.00;95856.06;5044252;28;20561;-69
2021/11/07 04:38:27;;;;;;;46.83;20.83;;;;;;;12.01;100.00;95847.63;5044453;28;20040;-70
2021/11/07 04:40:55;;;;;;;43.38;19.15;;;;;;;12.03;100.00;95845.59;5040737;28;20566;-70
2021/11/07 04:43:22;;;;;;;51.33;19.05;;;;;;;12.06;100.00;95839.16;5042439;28;20041;-70
2021/11/07 04:45:50;;;;;;;38.35;17.05;;;;;;;12.07;100.00;95850.41;5043362;28;20041;-69
2021/11/07 04:48:17;;;;;;;49.83;18.58;;;;;;;12.00;100.00;95830.38;5043985;28;20037;-70
2021/11/07 04:50:46;;;;;;;48.20;19.38;;;;;;;12.18;100.00;95849.69;5043752;28;20475;-70
2021/11/07 04:53:15;;;;;;;43.08;19.83;;;;;;;12.17;100.00;95840.25;5042134;28;20049;-69
2021/11/07 04:55:43;;;;;;;43.53;19.10;;;;;;;12.18;100.00;95832.22;5041334;28;20049;-69
2021/11/07 04:58:11;;;;;;;45.65;18.15;;;;;;;12.23;100.00;95839.41;5043520;28;20037;-70
2021/11/07 05:00:40;;;;;;;41.05;18.90;;;;;;;12.19;100.00;95835.59;5042787;28;20571;-70
2021/11/07 05:03:09;;;;;;;38.10;17.20;;;;;;;12.02;100.00;95812.66;5042991;28;20048;-70
2021/11/07 05:05:37;;;;;;;40.47;18.42;;;;;;;12.20;100.00;95829.38;5043451;28;20533;-70
2021/11/07 05:08:05;;;;;;;37.70;17.83;;;;;;;12.08;100.00;95810.22;5041212;28;20049;-69
2021/11/07 05:10:32;;;;;;;34.03;15.95;;;;;;;12.16;100.00;95830.84;5043290;28;20044;-70
2021/11/07 05:12:59;;;;;;;48.92;17.70;;;;;;;12.10;100.00;95835.13;5044126;28;20052;-70
2021/11/07 05:15:26;;;;;;;48.38;19.05;;;;;;;12.11;100.00;95835.91;5043939;28;20049;-70
2021/11/07 05:17:57;;;;;;;41.85;17.67;;;;;;;11.96;100.00;95813.53;5042886;28;20040;-70
2021/11/07 05:20:24;;;;;;;38.47;18.38;;;;;;;12.03;100.00;95835.16;5042828;28;20110;-69
2021/11/07 05:22:51;;;;;;;43.85;20.23;;;;;;;12.00;100.00;95825.16;5041785;28;20036;-70
2021/11/07 05:25:18;;;;;;;43.25;17.15;;;;;;;12.02;100.00;95828.34;5041588;28;20060;-70
2021/11/07 05:27:45;;;;;;;40.58;17.42;;;;;;;12.04;100.00;95831.53;5041324;28;20055;-69
2021/11/07 05:30:15;;;;;;;35.50;18.10;;;;;;;12.06;100.00;95839.16;5042350;28;20047;-70
2021/11/07 05:32:44;;;;;;;43.95;18.45;;;;;;;12.05;100.00;95848.81;5042179;28;20041;-70
2021/11/07 05:35:13;;;;;;;46.35;19.42;;;;;;;12.13;100.00;95849.53;5041718;28;20045;-70
2021/11/07 05:37:40;;;;;;;44.45;20.48;;;;;;;12.13;100.00;95850.34;5043458;28;20044;-69
2021/11/07 05:40:08;;;;;;;45.08;19.23;;;;;;;12.09;100.00;95841.34;5042257;28;20106;-70
2021/11/07 05:42:36;;;;;;;42.00;18.45;;;;;;;12.13;100.00;95859.97;5041198;28;20056;-70
2021/11/07 05:45:04;;;;;;;41.95;16.85;;;;;;;12.03;100.00;95850.84;5042143;28;20075;-70
2021/11/07 05:47:31;;;;;;;43.33;17.85;;;;;;;12.17;100.00;95861.16;5040967;28;20037;-69
2021/11/07 05:49:58;;;;;;;48.95;19.58;;;;;;;12.13;100.00;95858.16;5042922;28;20049;-69
2021/11/07 05:52:26;;;;;;;38.47;16.85;;;;;;;12.08;100.00;95854.59;5041708;28;21020;-69
2021/11/07 05:54:53;;;;;;;40.47;19.15;;;;;;;12.13;100.00;95865.22;5040582;28;20402;-69
2021/11/07 05:57:20;;;;;;;56.58;19.10;;;;;;;12.13;100.00;95866.00;5041733;28;20506;-69
2021/11/07 05:59:47;;;;;;;39.47;18.17;;;;;;;11.94;100.00;95843.47;5042570;28;20049;-69
2021/11/07 06:02:14;;;;;;;41.50;18.17;;;;;;;12.18;100.00;95873.19;5040950;28;20060;-69
2021/11/07 06:04:41;;;;;;;37.25;17.38;;;;;;;12.21;100.00;95870.16;5040332;28;20423;-69
2021/11/07 06:07:08;;;;;;;37.78;18.05;;;;;;;12.21;100.00;95862.34;5042937;28;20540;-70
2021/11/07 06:09:35;;;;;;;48.17;21.27;;;;;;;12.23;100.00;95866.31;5041764;28;20041;-69
2021/11/07 06:12:03;;;;;;;38.42;18.65;;;;;;;12.21;100.00;95867.56;5042473;28;20045;-69
2021/11/07 06:14:30;;;;;;;40.50;17.73;;;;;;;12.30;100.00;95874.09;5042952;28;20053;-69
2021/11/07 06:16:57;;;;;;;46.60;21.30;;;;;;;12.30;100.00;95870.66;5041867;28;20041;-70
2021/11/07 06:19:24;;;;;;;48.88;19.88;;;;;;;12.31;100.00;95867.84;5042391;28;20045;-69
2021/11/07 06:21:53;;;;;;;40.85;18.40;;;;;;;12.43;100.00;95881.78;5040769;28;20064;-69
2021/11/07 06:24:25;;;;;;;38.20;17.33;;;;;;;12.34;100.00;95872.63;5022735;28;20067;-70
2021/11/07 06:26:56;;;;;;;36.63;16.23;;;;;;;12.42;100.00;95874.97;5038641;28;20106;-69
2021/11/07 06:29:25;;;;;;;39.88;17.65;;;;;;;12.48;100.00;95877.72;5041123;28;20525;-69
2021/11/07 06:31:53;;;;;;;37.22;16.42;;;;;;;12.52;100.00;95884.13;5040302;28;20512;-70
2021/11/07 06:34:22;;;;;;;41.70;21.17;;;;;;;12.40;100.00;95882.22;5039317;28;20085;-69
2021/11/07 06:36:51;;;;;;;54.33;23.73;;;;;;;12.46;100.00;95890.22;5039524;28;20696;-69
2021/11/07 06:39:18;;;;;;;48.90;22.17;;;;;;;12.43;100.00;95871.34;5038971;28;20079;-69
2021/11/07 06:41:46;;;;;;;40.28;19.02;;;;;;;12.55;100.00;95888.91;5021139;28;20045;-69
2021/11/07 06:44:14;;;;;;;36.33;16.60;;;;;;;12.63;100.00;95891.25;5042173;28;20056;-70
2021/11/07 06:46:42;;;;;;;39.85;17.75;;;;;;;12.63;100.00;95881.56;5041049;28;20052;-69
2021/11/07 06:49:12;;;;;;;45.42;19.33;;;;;;;12.67;100.00;95892.41;5038646;28;20037;-70
2021/11/07 06:51:42;;;;;;;37.83;17.13;;;;;;;12.55;100.00;95873.22;5039517;28;20052;-69
2021/11/07 06:54:11;;;;;;;39.83;18.52;;;;;;;12.67;100.00;95884.56;5038597;28;20036;-69
2021/11/07 06:56:39;;;;;;;37.63;16.60;;;;;;;12.78;100.00;95889.09;5023307;28;20059;-70
2021/11/07 06:59:06;;;;;;;34.58;16.30;;;;;;;12.90;100.00;95896.19;5039869;28;20090;-69
2021/11/07 07:01:34;;;;;;;40.30;17.05;;;;;;;12.95;100.00;95888.47;5040594;28;20040;-70
2021/11/07 07:04:01;;;;;;;44.47;19.95;;;;;;;13.06;100.00;95885.13;5040244;28;20123;-69
2021/11/07 07:06:29;;;;;;;33.47;14.93;;;;;;;13.15;100.00;95873.34;5043255;28;20044;-68
2021/11/07 07:08:59;;;;;;;33.88;17.52;;;;;;;13.29;100.00;95875.75;5043705;28;20072;-70
2021/11/07 07:11:49;;;;;;;29.98;14.45;;;;;;;13.35;100.00;95877.53;5044684;28;20053;-69
2021/11/07 07:14:25;;;;;;;33.25;16.10;;;;;;;13.42;100.00;95872.22;5044108;28;20119;-70
2021/11/07 07:35:51;;;;;;;35.45;16.50;;;;;;;13.40;100.00;95859.34;5041713;28;20098;-72
2021/11/07 07:38:19;;;;;;;30.48;15.57;;;;;;;13.52;100.00;95862.81;5043945;28;20045;-71
2021/11/07 07:40:46;;;;;;;31.92;13.18;;;;;;;13.56;100.00;95879.66;5043921;28;20045;-71
2021/11/07 07:43:13;;;;;;;24.92;13.32;;;;;;;13.60;100.00;95874.78;5043069;28;20045;-70
2021/11/07 07:45:40;;;;;;;30.33;16.45;;;;;;;13.69;100.00;95875.25;5043616;28;20053;-70
2021/11/07 07:48:07;;;;;;;28.90;13.60;;;;;;;13.68;100.00;95876.25;5042750;28;20069;-71
2021/11/07 07:50:37;;;;;;;27.98;13.02;;;;;;;13.79;100.00;95869.44;5042517;28;20045;-71
2021/11/07 07:53:05;;;;;;;23.92;11.30;;;;;;;13.92;100.00;95862.19;5042197;28;20052;-71
2021/11/07 07:55:32;;;;;;;27.95;12.82;;;;;;;14.18;100.00;95854.91;5043223;28;20506;-71
2021/11/07 07:58:00;;;;;;;26.02;11.25;;;;;;;14.58;100.00;95869.94;5045255;28;20041;-70
2021/11/07 08:00:27;;;;;;;29.92;14.02;;;;;;;14.80;100.00;95870.16;5043556;28;20041;-75
2021/11/07 08:02:54;;;;;;;29.70;12.63;;;;;;;14.90;100.00;95856.44;5043297;28;20446;-75
2021/11/07 08:05:23;;;;;;;29.63;12.75;;;;;;;15.09;100.00;95860.47;5043715;28;20041;-75
2021/11/07 08:07:50;;;;;;;33.58;15.15;;;;;;;14.91;100.00;95847.53;5042272;28;20934;-75
2021/11/07 08:10:18;;;;;;;31.92;14.15;;;;;;;14.49;100.00;95852.94;5023103;28;20045;-74
2021/11/07 08:12:44;;;;;;;24.83;13.70;;;;;;;14.42;100.00;95860.13;5042349;28;20049;-74
2021/11/07 08:15:13;;;;;;;32.83;15.38;;;;;;;14.45;100.00;95865.72;5043969;28;20041;-74
2021/11/07 08:17:41;;;;;;;28.42;11.70;;;;;;;14.44;100.00;95850.22;5043524;28;20037;-72
2021/11/07 08:20:10;;;;;;;20.02;10.85;;;;;;;14.56;100.00;95845.75;5043507;28;20396;-73
2021/11/07 08:22:40;;;;;;;20.67;10.57;;;;;;;14.51;100.00;95859.56;5042078;28;20091;-72
2021/11/07 08:25:13;;;;;;;21.45;11.05;;;;;;;14.48;100.00;95864.47;5034619;28;20048;-73
2021/11/07 08:27:43;;;;;;;25.67;13.17;;;;;;;14.41;100.00;95859.34;5038333;28;20064;-74
2021/11/07 08:30:11;;;;;;;23.27;11.23;;;;;;;14.33;100.00;95860.50;5041114;28;21235;-74
2021/11/07 08:32:38;;;;;;;22.75;11.82;;;;;;;14.33;100.00;95857.88;5037140;28;20502;-75
2021/11/07 08:35:06;;;;;;;24.85;12.77;;;;;;;14.29;100.00;95856.72;5041287;28;20458;-73
2021/11/07 08:37:44;;;;;;;24.63;12.50;;;;;;;14.22;100.00;95844.78;5041927;28;20522;-74
2021/11/07 08:40:13;;;;;;;26.83;12.40;;;;;;;14.27;100.00;95858.78;5040048;28;20508;-74
2021/11/07 08:42:48;;;;;;;19.95;10.82;;;;;;;14.31;100.00;95865.19;5039845;28;20052;-74
2021/11/07 09:04:26;;;;;;;24.30;11.68;;;;;;;14.27;100.00;95810.81;5040239;28;20496;-73
2021/11/07 09:09:26;;;;;;;20.73;11.80;;;;;;;14.46;100.00;95803.63;5038474;28;20054;-73
2021/11/07 09:11:55;;;;;;;26.63;11.63;;;;;;;14.38;100.00;95785.63;5040056;28;20060;-73
2021/11/07 09:14:26;;;;;;;24.40;11.45;;;;;;;14.44;100.00;95784.69;5040808;28;20433;-73
2021/11/07 09:16:54;;;;;;;28.15;13.95;;;;;;;14.41;100.00;95769.44;5041073;28;20045;-73
2021/11/07 09:19:25;;;;;;;25.55;11.68;;;;;;;14.60;100.00;95773.50;5041036;28;20045;-71
2021/11/07 09:22:08;;;;;;;25.50;11.35;;;;;;;14.88;100.00;95777.19;5039626;28;20049;-73
2021/11/07 09:24:42;;;;;;;22.83;11.68;;;;;;;14.94;100.00;95752.63;5041448;28;20048;-73
2021/11/07 09:27:22;;;;;;;23.67;10.48;;;;;;;15.06;100.00;95748.13;5036746;28;20056;-74
2021/11/07 09:32:45;;;;;;;20.23;10.35;;;;;;;16.23;99.92;95755.41;5023215;28;20136;-72
2021/11/07 09:38:02;;;;;;;21.42;11.40;;;;;;;16.46;94.52;95720.19;5042244;28;20041;-73
2021/11/07 09:40:33;;;;;;;18.85;10.20;;;;;;;16.75;93.94;95722.59;5040601;28;20487;-73
2021/11/07 09:43:47;;;;;;;19.92;10.77;;;;;;;16.94;93.55;95717.81;5040293;28;20042;-73
2021/11/07 09:45:59;;;;;;;21.67;11.27;;;;;;;17.10;92.04;95708.22;5029962;28;20057;-73
2021/11/07 09:48:33;;;;;;;21.33;10.10;;;;;;;17.14;89.93;95719.81;5040873;28;20051;-73
2021/11/07 09:51:01;;;;;;;21.48;11.55;;;;;;;17.22;91.23;95716.75;5042461;28;20041;-73
2021/11/07 09:53:28;;;;;;;19.42;9.48;;;;;;;17.88;87.20;95726.97;5041801;28;20048;-73
2021/11/07 09:55:55;;;;;;;20.17;9.93;;;;;;;18.19;86.44;95718.44;5041187;28;20048;-73
2021/11/07 09:58:23;;;;;;;18.90;9.98;;;;;;;18.14;85.69;95706.81;5040904;28;20043;-73
2021/11/07 10:00:54;;;;;;;17.40;9.70;;;;;;;18.38;84.85;95706.38;5042607;28;20513;-73
2021/11/07 10:03:25;;;;;;;16.80;9.43;;;;;;;18.61;82.71;95704.34;5039201;28;20102;-73
2021/11/07 10:05:52;;;;;;;16.42;9.38;;;;;;;18.77;82.62;95703.31;5042507;28;20102;-72
2021/11/07 10:08:20;;;;;;;21.55;11.00;;;;;;;19.01;78.69;95702.84;5040936;28;20053;-72
2021/11/07 10:11:03;;;;;;;18.55;9.25;;;;;;;19.11;78.65;95692.31;5041992;28;20041;-72
2021/11/07 10:13:32;;;;;;;18.15;9.73;;;;;;;18.98;79.35;95692.81;5039862;28;20048;-72
2021/11/07 10:16:12;;;;;;;15.15;9.20;;;;;;;18.77;82.77;95692.75;5041767;28;20068;-73
2021/11/07 10:18:59;;;;;;;16.55;9.63;;;;;;;19.12;79.24;95672.75;5041044;28;20041;-72
2021/11/07 10:21:34;;;;;;;20.15;9.85;;;;;;;19.23;78.29;95669.06;5037292;28;20491;-72
2021/11/07 10:24:16;;;;;;;17.10;9.82;;;;;;;19.98;75.90;95678.97;5021312;28;20049;-74
2021/11/07 10:26:46;;;;;;;18.02;9.48;;;;;;;19.88;74.27;95663.19;5040122;28;20111;-73
2021/11/07 10:29:31;;;;;;;15.77;8.80;;;;;;;19.73;75.28;95656.06;5041870;28;20067;-71
2021/11/07 10:32:03;;;;;;;15.68;8.50;;;;;;;19.88;75.10;95660.53;5041079;28;20391;-72
2021/11/07 10:43:14;;;;;;;13.35;8.05;;;;;;;20.77;71.53;95642.09;5045417;28;20045;-72
2021/11/07 10:45:57;;;;;;;14.25;8.27;;;;;;;21.17;71.26;95628.81;5043264;28;20053;-75
2021/11/07 10:54:24;;;;;;;13.43;7.57;;;;;;;22.14;63.69;95619.06;5042428;28;20131;-73
2021/11/07 10:57:12;;;;;;;12.45;7.82;;;;;;;22.04;65.23;95616.53;5042763;28;20048;-71
2021/11/07 10:59:39;;;;;;;10.48;7.68;;;;;;;21.70;65.38;95605.00;5042313;28;20518;-72
2021/11/07 11:02:43;;;;;;;12.30;6.97;;;;;;;21.49;65.58;95604.44;5043634;28;20068;-73
2021/11/07 11:05:25;;;;;;;12.02;7.00;;;;;;;21.50;63.96;95595.44;5004340;28;20522;-73
2021/11/07 11:08:17;;;;;;;12.40;7.22;;;;;;;21.04;65.63;95598.47;5038693;28;20460;-68
2021/11/07 11:13:33;;;;;;;11.68;7.72;;;;;;;21.78;63.23;95585.03;5041235;28;20064;-69
2021/11/07 11:24:19;;;;;;;15.45;8.23;;;;;;;21.73;63.24;95558.59;5039684;28;20136;-69
2021/11/07 11:37:48;;;;;;;16.77;7.43;;;;;;;22.31;60.38;95557.59;5042279;28;20045;-69
2021/11/07 11:42:49;;;;;;;13.45;8.30;;;;;;;21.64;61.22;95547.03;5040310;28;20044;-68
2021/11/07 11:45:30;;;;;;;14.27;8.48;;;;;;;20.66;64.38;95547.97;5044353;28;20581;-68
2021/11/07 11:48:09;;;;;;;12.00;8.25;;;;;;;20.64;64.70;95536.88;5041441;28;20053;-68
2021/11/07 11:53:55;;;;;;;13.13;7.50;;;;;;;21.41;63.16;95544.09;5042705;28;20045;-67
2021/11/07 12:01:38;;;;;;;11.05;7.43;;;;;;;22.80;57.80;95521.00;5043816;28;20098;-68
2021/11/07 12:15:00;;;;;;;11.35;7.32;;;;;;;20.71;63.13;95508.22;5041262;28;20045;-67
2021/11/07 12:17:34;;;;;;;14.43;8.02;;;;;;;20.67;66.98;95501.91;5043883;28;20044;-68
2021/11/07 12:20:25;;;;;;;14.75;7.18;;;;;;;20.72;66.25;95475.38;5041172;28;20063;-67
2021/11/07 12:23:15;;;;;;;12.90;8.32;;;;;;;20.97;65.50;95460.31;5043171;28;20059;-68
2021/11/07 12:25:43;;;;;;;12.85;7.57;;;;;;;21.08;65.67;95461.78;5041732;28;20045;-67
2021/11/07 12:28:10;;;;;;;12.55;7.55;;;;;;;20.71;66.12;95468.53;5042663;28;20040;-67
2021/11/07 12:30:40;;;;;;;17.90;8.80;;;;;;;20.62;66.44;95464.91;5043419;28;20052;-68
2021/11/07 12:33:11;;;;;;;14.15;8.45;;;;;;;19.93;68.87;95470.16;5043206;28;20037;-68
2021/11/07 12:35:53;;;;;;;12.80;8.18;;;;;;;19.78;70.43;95470.25;5042669;28;20053;-69
2021/11/07 12:41:12;;;;;;;12.10;7.90;;;;;;;20.74;67.22;95473.28;5040064;28;20055;-68
2021/11/07 12:43:46;;;;;;;14.40;8.70;;;;;;;20.85;66.70;95463.38;5040427;28;20049;-69
2021/11/07 12:46:54;;;;;;;14.30;8.48;;;;;;;20.37;68.78;95458.75;5043123;28;20057;-69
2021/11/07 12:49:27;;;;;;;14.80;8.50;;;;;;;19.65;70.83;95464.47;5038876;28;20115;-69
2021/11/07 12:52:07;;;;;;;12.02;7.78;;;;;;;19.33;72.56;95474.69;5042775;28;20044;-72
2021/11/07 12:54:56;;;;;;;18.10;8.23;;;;;;;19.38;73.24;95470.16;5046360;28;20071;-77
2021/11/07 12:57:44;;;;;;;12.05;8.10;;;;;;;19.20;73.88;95447.78;5025343;28;20102;-79
2021/11/07 13:00:16;;;;;;;14.00;8.77;;;;;;;19.17;74.31;95448.31;5043796;28;20041;-79
2021/11/07 13:02:43;;;;;;;14.00;8.73;;;;;;;19.14;74.94;95453.34;5025636;28;20056;-79
2021/11/07 13:05:40;;;;;;;19.77;8.98;;;;;;;19.06;75.16;95452.06;5042646;28;20449;-79
2021/11/07 13:08:19;;;;;;;11.65;8.20;;;;;;;18.94;74.66;95433.09;5042572;28;20545;-79
2021/11/07 13:11:44;;;;;;;14.80;8.07;;;;;;;19.19;74.22;95450.69;5043692;28;20051;-79
2021/11/07 13:14:58;;;;;;;15.35;8.35;;;;;;;19.06;74.24;95457.34;5045072;28;20063;-79
2021/11/07 13:28:57;;;;;;;15.70;9.10;;;;;;;18.55;75.59;95442.38;4946927;28;20124;-81
2021/11/07 13:31:28;;;;;;;14.43;9.00;;;;;;;18.33;76.37;95451.38;5006963;28;20154;-81
2021/11/07 13:34:07;;;;;;;22.23;9.93;;;;;;;18.47;76.67;95438.41;5042436;28;20038;-81
2021/11/07 13:36:45;;;;;;;15.25;8.43;;;;;;;18.94;75.49;95438.38;5041240;28;20053;-75
2021/11/07 13:39:38;;;;;;;19.30;9.15;;;;;;;19.16;73.85;95436.19;5041304;28;20048;-73
2021/11/07 13:42:16;;;;;;;17.65;8.98;;;;;;;19.40;72.23;95443.47;5042001;28;20562;-73
2021/11/07 13:45:01;;;;;;;22.85;13.77;;;;;;;19.74;71.32;95451.53;5040760;28;20048;-72
2021/11/07 13:47:33;;;;;;;15.52;9.25;;;;;;;19.96;70.63;95442.41;5041036;28;20449;-72
2021/11/07 13:50:03;;;;;;;11.25;7.00;;;;;;;19.99;70.03;95437.34;5039871;28;20044;-73
2021/11/07 13:52:31;;;;;;;15.52;8.73;;;;;;;20.01;69.37;95429.94;5023843;28;20044;-73
2021/11/07 13:54:58;;;;;;;16.30;8.70;;;;;;;19.98;68.20;95435.75;5041906;28;20107;-73
2021/11/07 13:57:30;;;;;;;11.95;8.40;;;;;;;19.80;68.11;95423.19;5040893;28;20045;-73
2021/11/07 13:59:58;;;;;;;15.23;7.75;;;;;;;19.54;69.77;95436.53;5041961;28;20052;-73
2021/11/07 14:02:26;;;;;;;12.35;7.63;;;;;;;19.58;69.82;95442.84;5040125;28;20049;-72
2021/11/07 14:04:58;;;;;;;11.73;7.03;;;;;;;19.29;70.92;95438.25;5040510;28;20381;-73
2021/11/07 14:07:32;;;;;;;13.90;9.05;;;;;;;19.29;71.35;95432.19;5041911;28;20040;-72